createdAt,value
2017-12-02T00:00:08.783Z,85.3
2017-12-02T00:00:49.327Z,85.59
2017-12-02T00:01:29.829Z,85.11
2017-12-02T00:02:10.369Z,85.02
2017-12-02T00:02:50.921Z,85.21
2017-12-02T00:03:31.506Z,85.21
2017-12-02T00:04:12.070Z,84.92
2017-12-02T00:04:52.616Z,84.36
2017-12-02T00:05:33.184Z,84.55
2017-12-02T00:06:13.671Z,85.21
2017-12-02T00:06:54.181Z,85.11
2017-12-02T00:07:34.687Z,84.55
2017-12-02T00:08:15.217Z,84.64
2017-12-02T00:08:55.767Z,85.02
2017-12-02T00:09:36.287Z,84.83
2017-12-02T00:10:16.861Z,84.74
2017-12-02T00:10:57.408Z,85.3
2017-12-02T00:11:37.949Z,85.87
2017-12-02T00:12:18.523Z,85.87
2017-12-02T00:12:59.064Z,85.68
2017-12-02T00:13:39.586Z,85.49
2017-12-02T00:14:20.133Z,85.11
2017-12-02T00:15:00.637Z,84.83
2017-12-02T00:15:41.152Z,84.83
2017-12-02T00:16:21.751Z,85.21
2017-12-02T00:17:02.311Z,84.92
2017-12-02T00:17:42.826Z,84.92
2017-12-02T00:18:23.353Z,84.83
2017-12-02T00:19:03.896Z,84.83
2017-12-02T00:19:44.466Z,85.02
2017-12-02T00:20:24.998Z,84.55
2017-12-02T00:21:05.553Z,84.17
2017-12-02T00:21:46.091Z,84.07
2017-12-02T00:22:26.612Z,83.78
2017-12-02T00:23:07.155Z,84.07
2017-12-02T00:23:47.737Z,83.78
2017-12-02T00:24:28.262Z,83.88
2017-12-02T00:25:08.775Z,84.17
2017-12-02T00:25:49.301Z,83.97
2017-12-02T00:26:29.850Z,84.26
2017-12-02T00:27:10.360Z,84.45
2017-12-02T00:27:50.883Z,84.26
2017-12-02T00:28:31.429Z,84.74
2017-12-02T00:29:11.921Z,84.07
2017-12-02T00:29:52.449Z,84.36
2017-12-02T00:30:32.995Z,84.36
2017-12-02T00:31:13.492Z,84.17
2017-12-02T00:31:54.036Z,84.64
2017-12-02T00:32:34.605Z,84.64
2017-12-02T00:33:15.099Z,85.21
2017-12-02T00:33:55.642Z,85.02
2017-12-02T00:34:36.191Z,85.02
2017-12-02T00:35:16.711Z,84.55
2017-12-02T00:35:57.253Z,84.36
2017-12-02T00:36:37.780Z,84.36
2017-12-02T00:37:18.292Z,84.17
2017-12-02T00:37:58.832Z,84.36
2017-12-02T00:38:39.381Z,84.26
2017-12-02T00:39:19.911Z,84.83
2017-12-02T00:40:00.428Z,84.64
2017-12-02T00:40:40.962Z,84.92
2017-12-02T00:41:21.488Z,85.11
2017-12-02T00:42:02.043Z,85.21
2017-12-02T00:42:42.552Z,85.4
2017-12-02T00:43:23.066Z,85.21
2017-12-02T00:44:03.614Z,85.49
2017-12-02T00:44:44.143Z,85.49
2017-12-02T00:45:24.671Z,85.3
2017-12-02T00:46:05.220Z,85.21
2017-12-02T00:46:45.747Z,84.83
2017-12-02T00:47:26.253Z,85.02
2017-12-02T00:48:06.774Z,85.02
2017-12-02T00:48:47.357Z,85.02
2017-12-02T00:49:27.870Z,85.21
2017-12-02T00:50:08.428Z,84.74
2017-12-02T00:50:48.965Z,85.4
2017-12-02T00:51:29.471Z,85.3
2017-12-02T00:52:09.995Z,85.49
2017-12-02T00:52:50.569Z,85.49
2017-12-02T00:53:31.109Z,84.92
2017-12-02T00:54:11.675Z,84.83
2017-12-02T00:54:52.150Z,85.49
2017-12-02T00:55:32.687Z,85.4
2017-12-02T00:56:13.229Z,85.3
2017-12-02T00:56:53.737Z,85.21
2017-12-02T00:57:34.230Z,84.83
2017-12-02T00:58:14.732Z,84.83
2017-12-02T00:58:55.260Z,85.3
2017-12-02T00:59:35.792Z,85.3
2017-12-02T01:00:16.321Z,85.78
2017-12-02T01:00:56.860Z,85.4
2017-12-02T01:01:37.405Z,85.4
2017-12-02T01:02:17.918Z,84.83
2017-12-02T01:02:58.544Z,84.83
2017-12-02T01:03:39.059Z,85.4
2017-12-02T01:04:19.615Z,85.59
2017-12-02T01:05:00.119Z,85.4
2017-12-02T01:05:41.230Z,85.3
2017-12-02T01:06:21.768Z,84.83
2017-12-02T01:07:02.312Z,84.74
2017-12-02T01:07:42.833Z,84.74
2017-12-02T01:08:23.370Z,85.4
2017-12-02T01:09:03.896Z,85.21
2017-12-02T01:09:44.438Z,85.3
2017-12-02T01:10:24.947Z,85.49
2017-12-02T01:11:05.548Z,85.49
2017-12-02T01:11:46.050Z,85.3
2017-12-02T01:12:26.590Z,85.3
2017-12-02T01:13:07.150Z,85.59
2017-12-02T01:13:47.660Z,85.64
2017-12-02T01:14:28.259Z,85.64
2017-12-02T01:15:08.749Z,85.83
2017-12-02T01:15:49.279Z,86.07
2017-12-02T01:16:29.812Z,85.93
2017-12-02T01:17:10.344Z,85.49
2017-12-02T01:17:50.878Z,85.55
2017-12-02T01:18:31.423Z,85.68
2017-12-02T01:19:11.953Z,85.3
2017-12-02T01:19:52.482Z,85.49
2017-12-02T01:20:33.012Z,85.4
2017-12-02T01:21:13.542Z,84.83
2017-12-02T01:21:54.087Z,84.83
2017-12-02T01:22:34.643Z,85.3
2017-12-02T01:23:15.188Z,84.83
2017-12-02T01:23:55.673Z,85.02
2017-12-02T01:24:36.216Z,85.21
2017-12-02T01:25:16.739Z,84.55
2017-12-02T01:25:57.266Z,84.64
2017-12-02T01:26:37.817Z,85.21
2017-12-02T01:27:18.311Z,84.92
2017-12-02T01:27:58.836Z,84.83
2017-12-02T01:28:39.370Z,85.49
2017-12-02T01:29:19.911Z,85.11
2017-12-02T01:30:00.440Z,85.02
2017-12-02T01:30:40.986Z,84.83
2017-12-02T01:31:21.515Z,85.11
2017-12-02T01:32:02.063Z,85.02
2017-12-02T01:32:42.603Z,85.49
2017-12-02T01:33:23.124Z,85.11
2017-12-02T01:34:03.661Z,84.83
2017-12-02T01:34:44.180Z,84.83
2017-12-02T01:35:24.713Z,85.4
2017-12-02T01:36:05.234Z,85.4
2017-12-02T01:36:45.823Z,85.21
2017-12-02T01:37:26.345Z,84.55
2017-12-02T01:38:06.850Z,84.55
2017-12-02T01:38:47.390Z,85.02
2017-12-02T01:39:27.938Z,84.64
2017-12-02T01:40:08.491Z,85.3
2017-12-02T01:40:49.017Z,83.88
2017-12-02T01:41:29.576Z,85.02
2017-12-02T01:42:10.105Z,84.64
2017-12-02T01:42:50.642Z,84.55
2017-12-02T01:43:31.159Z,85.07
2017-12-02T01:44:11.668Z,84.92
2017-12-02T01:44:52.235Z,85.02
2017-12-02T01:45:32.815Z,85.02
2017-12-02T01:46:13.317Z,84.78
2017-12-02T01:46:53.833Z,85.55
2017-12-02T01:47:34.410Z,85.64
2017-12-02T01:48:14.915Z,85.74
2017-12-02T01:48:55.465Z,86.02
2017-12-02T01:49:35.987Z,85.93
2017-12-02T01:50:16.519Z,86.11
2017-12-02T01:50:57.056Z,86.11
2017-12-02T01:51:37.594Z,86.21
2017-12-02T01:52:18.161Z,85.93
2017-12-02T01:52:58.689Z,85.83
2017-12-02T01:53:39.213Z,85.4
2017-12-02T01:54:19.746Z,85.45
2017-12-02T01:55:00.298Z,85.83
2017-12-02T01:55:40.829Z,85.11
2017-12-02T01:56:21.398Z,85.83
2017-12-02T01:57:01.914Z,85.78
2017-12-02T01:57:42.415Z,85.21
2017-12-02T01:58:22.955Z,85.59
2017-12-02T01:59:03.485Z,85.07
2017-12-02T01:59:44.051Z,85.64
2017-12-02T02:00:24.569Z,85.45
2017-12-02T02:01:05.150Z,85.83
2017-12-02T02:01:45.645Z,86.02
2017-12-02T02:02:26.151Z,85.93
2017-12-02T02:03:06.710Z,85.83
2017-12-02T02:03:47.197Z,85.78
2017-12-02T02:04:27.731Z,85.93
2017-12-02T02:05:08.249Z,85.45
2017-12-02T02:05:48.786Z,86.02
2017-12-02T02:06:29.300Z,86.44
2017-12-02T02:07:09.834Z,86.02
2017-12-02T02:07:50.403Z,86.78
2017-12-02T02:08:30.925Z,87.16
2017-12-02T02:09:11.572Z,86.97
2017-12-02T02:09:52.014Z,86.97
2017-12-02T02:10:32.585Z,87.16
2017-12-02T02:11:13.112Z,87.16
2017-12-02T02:11:53.655Z,87.35
2017-12-02T02:12:34.169Z,87.82
2017-12-02T02:13:14.714Z,87.54
2017-12-02T02:13:55.269Z,87.35
2017-12-02T02:14:35.803Z,87.25
2017-12-02T02:15:16.301Z,87.73
2017-12-02T02:15:56.827Z,87.06
2017-12-02T02:16:37.337Z,86.97
2017-12-02T02:17:17.856Z,87.35
2017-12-02T02:17:58.417Z,87.45
2017-12-02T02:18:38.928Z,88.1
2017-12-02T02:19:19.446Z,87.54
2017-12-02T02:20:00.008Z,87.45
2017-12-02T02:20:40.524Z,87.73
2017-12-02T02:21:21.051Z,87.92
2017-12-02T02:22:01.578Z,87.45
2017-12-02T02:22:42.117Z,87.25
2017-12-02T02:23:22.693Z,87.54
2017-12-02T02:24:03.188Z,87.45
2017-12-02T02:24:43.715Z,87.92
2017-12-02T02:25:24.301Z,87.82
2017-12-02T02:26:04.824Z,87.82
2017-12-02T02:26:45.397Z,87.92
2017-12-02T02:27:25.893Z,87.82
2017-12-02T02:28:06.450Z,87.45
2017-12-02T02:28:46.988Z,87.92
2017-12-02T02:29:27.555Z,87.73
2017-12-02T02:30:08.095Z,87.73
2017-12-02T02:30:48.569Z,87.25
2017-12-02T02:31:29.124Z,87.73
2017-12-02T02:32:09.669Z,87.73
2017-12-02T02:32:50.185Z,87.35
2017-12-02T02:33:30.754Z,87.63
2017-12-02T02:34:11.275Z,87.35
2017-12-02T02:34:51.818Z,87.45
2017-12-02T02:35:32.323Z,87.16
2017-12-02T02:36:12.890Z,87.35
2017-12-02T02:36:53.485Z,86.97
2017-12-02T02:37:34.009Z,87.35
2017-12-02T02:38:14.547Z,87.06
2017-12-02T02:38:55.074Z,87.63
2017-12-02T02:39:35.624Z,87.73
2017-12-02T02:40:16.162Z,87.97
2017-12-02T02:40:56.716Z,88.35
2017-12-02T02:41:37.231Z,88.92
2017-12-02T02:42:17.738Z,89.01
2017-12-02T02:42:58.277Z,88.82
2017-12-02T02:43:38.885Z,88.29
2017-12-02T02:44:19.439Z,88.35
2017-12-02T02:44:59.905Z,88.25
2017-12-02T02:45:40.462Z,88.25
2017-12-02T02:46:21.016Z,88.25
2017-12-02T02:47:01.509Z,88.35
2017-12-02T02:47:42.063Z,88.16
2017-12-02T02:48:22.573Z,88.35
2017-12-02T02:49:03.128Z,88.25
2017-12-02T02:49:43.653Z,88.44
2017-12-02T02:50:24.186Z,88.1
2017-12-02T02:51:04.740Z,88.2
2017-12-02T02:51:45.239Z,87.82
2017-12-02T02:52:25.770Z,87.87
2017-12-02T02:53:06.318Z,87.92
2017-12-02T02:53:46.867Z,87.49
2017-12-02T02:54:27.406Z,87.54
2017-12-02T02:55:07.906Z,87.35
2017-12-02T02:55:48.427Z,86.87
2017-12-02T02:56:28.994Z,86.97
2017-12-02T02:57:09.581Z,87.06
2017-12-02T02:57:50.106Z,87.02
2017-12-02T02:58:30.600Z,86.97
2017-12-02T02:59:11.149Z,86.97
2017-12-02T02:59:51.655Z,86.97
2017-12-02T03:00:32.209Z,86.97
2017-12-02T03:01:12.762Z,87.25
2017-12-02T03:01:53.298Z,87.16
2017-12-02T03:02:33.828Z,86.97
2017-12-02T03:03:14.364Z,86.97
2017-12-02T03:03:54.941Z,86.78
2017-12-02T03:04:35.527Z,86.49
2017-12-02T03:05:16.050Z,86.68
2017-12-02T03:05:56.589Z,86.78
2017-12-02T03:06:37.100Z,86.87
2017-12-02T03:07:17.665Z,87.12
2017-12-02T03:07:58.154Z,87.12
2017-12-02T03:08:38.726Z,86.83
2017-12-02T03:09:19.260Z,87.12
2017-12-02T03:09:59.787Z,87.02
2017-12-02T03:10:40.317Z,87.21
2017-12-02T03:11:20.953Z,86.74
2017-12-02T03:12:01.447Z,87.77
2017-12-02T03:12:41.963Z,87.3
2017-12-02T03:13:22.491Z,87.4
2017-12-02T03:14:03.053Z,87.97
2017-12-02T03:14:43.599Z,88.06
2017-12-02T03:15:24.153Z,87.3
2017-12-02T03:16:04.689Z,87.3
2017-12-02T03:16:45.229Z,87.02
2017-12-02T03:17:25.756Z,86.74
2017-12-02T03:18:06.294Z,87.3
2017-12-02T03:18:46.819Z,87.3
2017-12-02T03:19:27.363Z,87.12
2017-12-02T03:20:07.903Z,87.3
2017-12-02T03:20:48.423Z,87.21
2017-12-02T03:21:28.969Z,87.12
2017-12-02T03:22:09.519Z,87.3
2017-12-02T03:22:50.177Z,87.68
2017-12-02T03:23:30.693Z,87.4
2017-12-02T03:24:11.225Z,87.49
2017-12-02T03:24:51.770Z,87.49
2017-12-02T03:25:32.327Z,87.49
2017-12-02T03:26:12.803Z,87.21
2017-12-02T03:26:53.343Z,87.3
2017-12-02T03:27:33.863Z,87.59
2017-12-02T03:28:14.381Z,87.4
2017-12-02T03:28:54.924Z,87.21
2017-12-02T03:29:35.472Z,87.87
2017-12-02T03:30:16.019Z,87.3
2017-12-02T03:30:56.556Z,87.4
2017-12-02T03:31:37.091Z,87.3
2017-12-02T03:32:17.606Z,87.02
2017-12-02T03:32:58.163Z,86.83
2017-12-02T03:33:38.667Z,86.83
2017-12-02T03:34:19.225Z,86.74
2017-12-02T03:34:59.733Z,86.93
2017-12-02T03:35:40.275Z,87.4
2017-12-02T03:36:20.778Z,87.21
2017-12-02T03:37:01.293Z,86.93
2017-12-02T03:37:41.826Z,87.02
2017-12-02T03:38:22.339Z,86.74
2017-12-02T03:39:02.858Z,87.02
2017-12-02T03:39:43.392Z,86.83
2017-12-02T03:40:23.910Z,86.83
2017-12-02T03:41:04.472Z,87.12
2017-12-02T03:41:45.010Z,87.21
2017-12-02T03:42:25.587Z,86.83
2017-12-02T03:43:06.086Z,86.83
2017-12-02T03:43:46.618Z,86.26
2017-12-02T03:44:27.126Z,86.26
2017-12-02T03:45:07.670Z,87.21
2017-12-02T03:45:48.250Z,86.74
2017-12-02T03:46:28.736Z,87.12
2017-12-02T03:47:09.267Z,86.74
2017-12-02T03:47:49.813Z,86.26
2017-12-02T03:48:30.333Z,86.64
2017-12-02T03:49:10.824Z,86.64
2017-12-02T03:49:51.382Z,87.12
2017-12-02T03:50:31.916Z,86.83
2017-12-02T03:51:12.460Z,86.45
2017-12-02T03:51:52.922Z,86.26
2017-12-02T03:52:33.478Z,86.16
2017-12-02T03:53:14.024Z,86.55
2017-12-02T03:53:54.565Z,86.45
2017-12-02T03:54:35.116Z,86.26
2017-12-02T03:55:15.638Z,86.45
2017-12-02T03:55:56.160Z,86.83
2017-12-02T03:56:36.763Z,86.64
2017-12-02T03:57:17.246Z,86.45
2017-12-02T03:57:57.781Z,86.55
2017-12-02T03:58:38.290Z,86.64
2017-12-02T03:59:18.798Z,87.12
2017-12-02T03:59:59.330Z,86.26
2017-12-02T04:00:39.863Z,86.64
2017-12-02T04:01:20.410Z,86.55
2017-12-02T04:02:00.963Z,86.45
2017-12-02T04:02:41.450Z,87.02
2017-12-02T04:03:22.007Z,86.64
2017-12-02T04:04:02.533Z,86.93
2017-12-02T04:04:43.067Z,87.4
2017-12-02T04:05:23.627Z,87.21
2017-12-02T04:06:04.227Z,86.83
2017-12-02T04:06:44.772Z,86.83
2017-12-02T04:07:25.290Z,86.87
2017-12-02T04:08:05.852Z,86.26
2017-12-02T04:08:46.384Z,86.68
2017-12-02T04:09:26.910Z,86.4
2017-12-02T04:10:07.447Z,86.68
2017-12-02T04:10:47.985Z,86.55
2017-12-02T04:11:28.508Z,86.64
2017-12-02T04:12:09.045Z,86.21
2017-12-02T04:12:49.556Z,86.78
2017-12-02T04:13:30.133Z,86.21
2017-12-02T04:14:10.679Z,86.11
2017-12-02T04:14:51.216Z,85.55
2017-12-02T04:15:31.755Z,85.64
2017-12-02T04:16:12.241Z,85.36
2017-12-02T04:16:52.796Z,85.55
2017-12-02T04:17:33.303Z,84.98
2017-12-02T04:18:13.807Z,85.36
2017-12-02T04:18:54.365Z,84.88
2017-12-02T04:19:34.875Z,84.78
2017-12-02T04:20:15.372Z,84.78
2017-12-02T04:20:55.896Z,84.98
2017-12-02T04:21:36.436Z,84.88
2017-12-02T04:22:16.996Z,85.36
2017-12-02T04:22:57.473Z,84.78
2017-12-02T04:23:38.061Z,84.88
2017-12-02T04:24:18.552Z,85.07
2017-12-02T04:24:59.085Z,85.36
2017-12-02T04:25:39.625Z,85.26
2017-12-02T04:26:20.229Z,85.36
2017-12-02T04:27:00.772Z,84.88
2017-12-02T04:27:41.300Z,84.88
2017-12-02T04:28:21.863Z,85.45
2017-12-02T04:29:02.368Z,85.55
2017-12-02T04:29:42.883Z,85.55
2017-12-02T04:30:23.402Z,85.83
2017-12-02T04:31:03.920Z,85.78
2017-12-02T04:31:44.470Z,85.93
2017-12-02T04:32:24.979Z,85.36
2017-12-02T04:33:05.514Z,85.03
2017-12-02T04:33:46.076Z,85.22
2017-12-02T04:34:26.634Z,85.69
2017-12-02T04:35:07.166Z,85.41
2017-12-02T04:35:47.720Z,85.97
2017-12-02T04:36:28.230Z,86.16
2017-12-02T04:37:08.816Z,86.16
2017-12-02T04:37:49.361Z,86.26
2017-12-02T04:38:29.919Z,86.07
2017-12-02T04:39:10.408Z,86.26
2017-12-02T04:39:50.957Z,86.07
2017-12-02T04:40:31.491Z,85.97
2017-12-02T04:41:12.010Z,85.74
2017-12-02T04:41:52.545Z,85.31
2017-12-02T04:42:33.128Z,85.41
2017-12-02T04:43:13.649Z,85.6
2017-12-02T04:43:54.165Z,85.6
2017-12-02T04:44:34.661Z,85.41
2017-12-02T04:45:15.180Z,86.16
2017-12-02T04:45:55.738Z,85.97
2017-12-02T04:46:36.255Z,86.07
2017-12-02T04:47:16.935Z,85.31
2017-12-02T04:47:57.503Z,85.5
2017-12-02T04:48:38.032Z,85.97
2017-12-02T04:49:18.563Z,85.69
2017-12-02T04:49:59.067Z,85.5
2017-12-02T04:50:39.595Z,85.69
2017-12-02T04:51:20.108Z,85.69
2017-12-02T04:52:00.651Z,85.97
2017-12-02T04:52:41.179Z,85.5
2017-12-02T04:53:21.742Z,85.78
2017-12-02T04:54:02.272Z,85.88
2017-12-02T04:54:42.825Z,85.5
2017-12-02T04:55:23.353Z,85.5
2017-12-02T04:56:03.853Z,85.41
2017-12-02T04:56:44.372Z,85.6
2017-12-02T04:57:24.926Z,85.6
2017-12-02T04:58:05.459Z,85.5
2017-12-02T04:58:45.998Z,85.5
2017-12-02T04:59:26.573Z,85.97
2017-12-02T05:00:07.044Z,85.5
2017-12-02T05:00:47.572Z,85.41
2017-12-02T05:01:28.121Z,85.31
2017-12-02T05:02:08.631Z,85.5
2017-12-02T05:02:49.167Z,85.31
2017-12-02T05:03:29.678Z,85.97
2017-12-02T05:04:10.210Z,85.88
2017-12-02T05:04:50.756Z,86.16
2017-12-02T05:05:31.263Z,85.97
2017-12-02T05:06:11.780Z,86.41
2017-12-02T05:06:52.315Z,86.5
2017-12-02T05:07:32.839Z,86.69
2017-12-02T05:08:13.352Z,86.88
2017-12-02T05:08:53.891Z,86.88
2017-12-02T05:09:34.426Z,86.26
2017-12-02T05:10:14.967Z,86.93
2017-12-02T05:10:55.533Z,85.93
2017-12-02T05:11:36.060Z,86.6
2017-12-02T05:12:16.593Z,86.6
2017-12-02T05:12:57.090Z,86.74
2017-12-02T05:13:37.641Z,86.07
2017-12-02T05:14:18.149Z,85.97
2017-12-02T05:14:58.678Z,85.46
2017-12-02T05:15:39.215Z,85.74
2017-12-02T05:16:19.762Z,85.74
2017-12-02T05:17:00.222Z,86.6
2017-12-02T05:17:40.748Z,86.6
2017-12-02T05:18:21.322Z,86.6
2017-12-02T05:19:01.854Z,86.98
2017-12-02T05:19:42.443Z,87.07
2017-12-02T05:20:22.931Z,86.5
2017-12-02T05:21:03.471Z,86.98
2017-12-02T05:21:43.979Z,86.79
2017-12-02T05:22:24.511Z,86.88
2017-12-02T05:23:05.018Z,86.5
2017-12-02T05:23:45.546Z,86.41
2017-12-02T05:24:26.077Z,86.5
2017-12-02T05:25:06.601Z,86.74
2017-12-02T05:25:47.183Z,85.93
2017-12-02T05:26:27.694Z,86.6
2017-12-02T05:27:08.209Z,86.88
2017-12-02T05:27:48.730Z,86.88
2017-12-02T05:28:29.269Z,86.79
2017-12-02T05:29:09.822Z,86.69
2017-12-02T05:29:50.388Z,87.16
2017-12-02T05:30:30.930Z,86.69
2017-12-02T05:31:11.472Z,86.88
2017-12-02T05:31:51.979Z,86.6
2017-12-02T05:32:32.509Z,86.88
2017-12-02T05:33:13.050Z,86.88
2017-12-02T05:33:53.572Z,86.55
2017-12-02T05:34:34.109Z,86.22
2017-12-02T05:35:14.621Z,86.31
2017-12-02T05:35:55.105Z,86.5
2017-12-02T05:36:35.660Z,86.5
2017-12-02T05:37:16.176Z,86.31
2017-12-02T05:37:56.738Z,86.79
2017-12-02T05:38:37.221Z,86.6
2017-12-02T05:39:17.780Z,86.98
2017-12-02T05:39:58.305Z,87.12
2017-12-02T05:40:38.855Z,86.26
2017-12-02T05:41:19.362Z,86.64
2017-12-02T05:41:59.892Z,86.74
2017-12-02T05:42:40.467Z,86.64
2017-12-02T05:43:20.959Z,85.69
2017-12-02T05:44:01.513Z,85.88
2017-12-02T05:44:42.042Z,86.26
2017-12-02T05:45:22.621Z,86.16
2017-12-02T05:46:03.139Z,86.07
2017-12-02T05:46:43.631Z,86.22
2017-12-02T05:47:24.147Z,86.16
2017-12-02T05:48:04.664Z,85.88
2017-12-02T05:48:45.186Z,85.88
2017-12-02T05:49:25.713Z,85.88
2017-12-02T05:50:06.247Z,85.78
2017-12-02T05:50:46.812Z,85.5
2017-12-02T05:51:27.333Z,85.31
2017-12-02T05:52:07.868Z,85.03
2017-12-02T05:52:48.416Z,85.5
2017-12-02T05:53:28.942Z,85.5
2017-12-02T05:54:09.474Z,85.41
2017-12-02T05:54:49.985Z,85.69
2017-12-02T05:55:30.522Z,85.41
2017-12-02T05:56:11.027Z,85.5
2017-12-02T05:56:51.539Z,85.88
2017-12-02T05:57:32.100Z,85.88
2017-12-02T05:58:12.616Z,85.22
2017-12-02T05:58:53.138Z,85.31
2017-12-02T05:59:33.687Z,85.41
2017-12-02T06:00:14.196Z,84.84
2017-12-02T06:00:54.716Z,84.84
2017-12-02T06:01:35.259Z,85.41
2017-12-02T06:02:15.805Z,85.31
2017-12-02T06:02:56.371Z,85.41
2017-12-02T06:03:36.924Z,85.6
2017-12-02T06:04:17.452Z,84.84
2017-12-02T06:04:57.989Z,84.74
2017-12-02T06:05:38.543Z,84.74
2017-12-02T06:06:19.100Z,84.94
2017-12-02T06:06:59.609Z,84.27
2017-12-02T06:07:40.125Z,84.74
2017-12-02T06:08:20.702Z,84.08
2017-12-02T06:09:01.237Z,84.36
2017-12-02T06:09:41.815Z,84.08
2017-12-02T06:10:22.363Z,84.84
2017-12-02T06:11:02.897Z,83.89
2017-12-02T06:11:43.470Z,83.89
2017-12-02T06:12:24.028Z,83.89
2017-12-02T06:13:04.545Z,83.89
2017-12-02T06:13:45.095Z,83.61
2017-12-02T06:14:25.585Z,83.8
2017-12-02T06:15:06.131Z,83.8
2017-12-02T06:15:46.673Z,83.32
2017-12-02T06:16:27.189Z,83.89
2017-12-02T06:17:07.731Z,83.89
2017-12-02T06:17:48.219Z,83.7
2017-12-02T06:18:28.812Z,83.89
2017-12-02T06:19:09.346Z,83.89
2017-12-02T06:19:49.829Z,84.03
2017-12-02T06:20:30.401Z,83.17
2017-12-02T06:21:10.950Z,83.32
2017-12-02T06:21:51.430Z,83.51
2017-12-02T06:22:32.040Z,83.61
2017-12-02T06:23:12.540Z,83.42
2017-12-02T06:23:53.108Z,83.55
2017-12-02T06:24:33.580Z,83.46
2017-12-02T06:25:14.166Z,83.55
2017-12-02T06:25:54.638Z,83.36
2017-12-02T06:26:35.157Z,83.65
2017-12-02T06:27:15.673Z,83.42
2017-12-02T06:27:56.196Z,83.32
2017-12-02T06:28:36.792Z,83.55
2017-12-02T06:29:17.296Z,83.46
2017-12-02T06:29:57.837Z,83.46
2017-12-02T06:30:38.391Z,83.55
2017-12-02T06:31:18.916Z,83.65
2017-12-02T06:31:59.454Z,82.94
2017-12-02T06:32:39.914Z,82.85
2017-12-02T06:33:20.462Z,82.98
2017-12-02T06:34:00.991Z,82.98
2017-12-02T06:34:41.507Z,83.04
2017-12-02T06:35:22.047Z,82.94
2017-12-02T06:36:02.614Z,82.98
2017-12-02T06:36:43.147Z,83.08
2017-12-02T06:37:23.735Z,82.75
2017-12-02T06:38:04.211Z,82.94
2017-12-02T06:38:44.787Z,82.94
2017-12-02T06:39:25.305Z,82.75
2017-12-02T06:40:05.875Z,82.94
2017-12-02T06:40:46.405Z,82.56
2017-12-02T06:41:26.944Z,82.66
2017-12-02T06:42:07.563Z,82.85
2017-12-02T06:42:48.130Z,82.56
2017-12-02T06:43:28.656Z,82.56
2017-12-02T06:44:09.150Z,82.75
2017-12-02T06:44:49.682Z,82.85
2017-12-02T06:45:30.226Z,83.04
2017-12-02T06:46:10.759Z,82.66
2017-12-02T06:46:51.279Z,82.75
2017-12-02T06:47:31.846Z,83.13
2017-12-02T06:48:12.355Z,82.85
2017-12-02T06:48:52.881Z,82.85
2017-12-02T06:49:33.407Z,83.13
2017-12-02T06:50:13.912Z,82.85
2017-12-02T06:50:54.525Z,83.04
2017-12-02T06:51:35.004Z,82.66
2017-12-02T06:52:15.524Z,83.04
2017-12-02T06:52:56.047Z,82.28
2017-12-02T06:53:36.567Z,82.37
2017-12-02T06:54:17.162Z,82.56
2017-12-02T06:54:57.733Z,82.94
2017-12-02T06:55:38.193Z,82.75
2017-12-02T06:56:18.740Z,82.94
2017-12-02T06:56:59.268Z,82.98
2017-12-02T06:57:39.796Z,82.79
2017-12-02T06:58:20.372Z,83.17
2017-12-02T06:59:00.858Z,82.7
2017-12-02T06:59:41.384Z,82.42
2017-12-02T07:00:21.968Z,82.66
2017-12-02T07:01:02.520Z,82.56
2017-12-02T07:01:43.072Z,83.13
2017-12-02T07:02:23.624Z,82.94
2017-12-02T07:03:04.151Z,82.85
2017-12-02T07:03:44.717Z,82.89
2017-12-02T07:04:25.267Z,82.79
2017-12-02T07:05:05.847Z,82.28
2017-12-02T07:05:46.328Z,82.42
2017-12-02T07:06:26.872Z,83.08
2017-12-02T07:07:07.351Z,83.04
2017-12-02T07:07:47.863Z,83.61
2017-12-02T07:08:28.385Z,83.65
2017-12-02T07:09:09.021Z,82.98
2017-12-02T07:09:49.528Z,82.32
2017-12-02T07:10:30.219Z,82.37
2017-12-02T07:11:10.743Z,82.94
2017-12-02T07:11:51.270Z,83.13
2017-12-02T07:12:31.835Z,82.66
2017-12-02T07:13:12.369Z,82.94
2017-12-02T07:13:52.913Z,82.94
2017-12-02T07:14:33.432Z,82.85
2017-12-02T07:15:13.963Z,82.98
2017-12-02T07:15:54.539Z,82.13
2017-12-02T07:16:35.017Z,82.6
2017-12-02T07:17:15.539Z,82.7
2017-12-02T07:17:56.081Z,82.18
2017-12-02T07:18:36.632Z,82.09
2017-12-02T07:19:17.186Z,82.75
2017-12-02T07:19:57.718Z,83.04
2017-12-02T07:20:38.246Z,82.94
2017-12-02T07:21:18.814Z,82.94
2017-12-02T07:21:59.322Z,82.28
2017-12-02T07:22:39.836Z,82.56
2017-12-02T07:23:20.337Z,82.75
2017-12-02T07:24:00.872Z,82.56
2017-12-02T07:24:41.433Z,82.37
2017-12-02T07:25:21.932Z,82.94
2017-12-02T07:26:02.451Z,83.04
2017-12-02T07:26:43.016Z,82.75
2017-12-02T07:27:23.557Z,81.99
2017-12-02T07:28:04.064Z,82.09
2017-12-02T07:28:44.630Z,81.43
2017-12-02T07:29:25.135Z,81.62
2017-12-02T07:30:05.676Z,81.9
2017-12-02T07:30:46.237Z,81.99
2017-12-02T07:31:26.763Z,82.09
2017-12-02T07:32:07.287Z,82.37
2017-12-02T07:32:47.846Z,82.28
2017-12-02T07:33:28.352Z,81.9
2017-12-02T07:34:08.969Z,81.62
2017-12-02T07:34:49.482Z,81.81
2017-12-02T07:35:30.055Z,82.18
2017-12-02T07:36:10.638Z,82.47
2017-12-02T07:36:51.240Z,82.42
2017-12-02T07:37:31.727Z,82.13
2017-12-02T07:38:12.249Z,81.66
2017-12-02T07:38:52.841Z,82.13
2017-12-02T07:39:33.351Z,81.85
2017-12-02T07:40:13.874Z,81.62
2017-12-02T07:40:54.378Z,82.18
2017-12-02T07:41:34.904Z,82.28
2017-12-02T07:42:15.401Z,82.28
2017-12-02T07:42:55.922Z,81.33
2017-12-02T07:43:36.442Z,82.37
2017-12-02T07:44:16.949Z,81.99
2017-12-02T07:44:57.454Z,82.18
2017-12-02T07:45:38.036Z,82.56
2017-12-02T07:46:18.597Z,82.18
2017-12-02T07:46:59.194Z,82.75
2017-12-02T07:47:39.737Z,82.09
2017-12-02T07:48:20.292Z,81.9
2017-12-02T07:49:00.799Z,82.18
2017-12-02T07:49:41.337Z,82.18
2017-12-02T07:50:21.864Z,82.56
2017-12-02T07:51:02.403Z,82.09
2017-12-02T07:51:42.970Z,82.47
2017-12-02T07:52:23.475Z,81.52
2017-12-02T07:53:04.044Z,82.28
2017-12-02T07:53:44.523Z,82.23
2017-12-02T07:54:25.073Z,82.6
2017-12-02T07:55:05.579Z,82.32
2017-12-02T07:55:46.169Z,82.42
2017-12-02T07:56:26.684Z,82.32
2017-12-02T07:57:07.191Z,81.66
2017-12-02T07:57:47.718Z,81.66
2017-12-02T07:58:28.306Z,82.51
2017-12-02T07:59:08.808Z,82.13
2017-12-02T07:59:49.358Z,82.32
2017-12-02T08:00:29.874Z,81.47
2017-12-02T08:01:10.388Z,81.47
2017-12-02T08:01:50.963Z,81.47
2017-12-02T08:02:31.480Z,82.23
2017-12-02T08:03:11.997Z,82.23
2017-12-02T08:03:52.502Z,82.13
2017-12-02T08:04:33.065Z,82.13
2017-12-02T08:05:13.645Z,82.51
2017-12-02T08:05:54.136Z,81.47
2017-12-02T08:06:34.683Z,81.56
2017-12-02T08:07:15.254Z,81.75
2017-12-02T08:07:55.782Z,81.56
2017-12-02T08:08:36.326Z,81.56
2017-12-02T08:09:16.865Z,81.66
2017-12-02T08:09:57.437Z,81.75
2017-12-02T08:10:38.019Z,81.75
2017-12-02T08:11:18.570Z,81.47
2017-12-02T08:11:59.071Z,82.51
2017-12-02T08:12:39.628Z,82.23
2017-12-02T08:13:20.222Z,82.23
2017-12-02T08:14:00.737Z,82.04
2017-12-02T08:14:41.273Z,81.66
2017-12-02T08:15:21.815Z,81.9
2017-12-02T08:16:02.362Z,82.09
2017-12-02T08:16:42.890Z,82.37
2017-12-02T08:17:23.449Z,83.13
2017-12-02T08:18:03.964Z,83.51
2017-12-02T08:18:44.495Z,83.7
2017-12-02T08:19:25.016Z,83.61
2017-12-02T08:20:05.535Z,83.42
2017-12-02T08:20:46.205Z,83.13
2017-12-02T08:21:26.747Z,83.04
2017-12-02T08:22:07.299Z,82.75
2017-12-02T08:22:47.857Z,83.51
2017-12-02T08:23:28.376Z,82.85
2017-12-02T08:24:08.875Z,83.7
2017-12-02T08:24:49.420Z,83.23
2017-12-02T08:25:29.970Z,83.89
2017-12-02T08:26:10.507Z,83.51
2017-12-02T08:26:51.011Z,83.7
2017-12-02T08:27:31.680Z,83.42
2017-12-02T08:28:12.127Z,83.51
2017-12-02T08:28:52.642Z,83.51
2017-12-02T08:29:33.219Z,83.51
2017-12-02T08:30:13.727Z,82.94
2017-12-02T08:30:54.250Z,83.13
2017-12-02T08:31:34.797Z,83.04
2017-12-02T08:32:15.333Z,83.13
2017-12-02T08:32:55.901Z,83.04
2017-12-02T08:33:36.443Z,83.13
2017-12-02T08:34:17.003Z,83.61
2017-12-02T08:34:57.483Z,83.8
2017-12-02T08:35:38.002Z,84.27
2017-12-02T08:36:18.551Z,84.27
2017-12-02T08:36:59.129Z,84.17
2017-12-02T08:37:39.732Z,84.46
2017-12-02T08:38:20.161Z,84.17
2017-12-02T08:39:00.731Z,83.42
2017-12-02T08:39:41.252Z,84.17
2017-12-02T08:40:21.789Z,83.8
2017-12-02T08:41:02.328Z,83.89
2017-12-02T08:41:42.862Z,83.32
2017-12-02T08:42:23.353Z,83.32
2017-12-02T08:43:03.903Z,83.08
2017-12-02T08:43:44.431Z,83.51